createdAt,value
2022-10-22T00:00:38.683Z,12.83
2022-10-22T00:02:40.205Z,12.79
2022-10-22T00:04:41.599Z,12.82
2022-10-22T00:06:43.330Z,12.92
2022-10-22T00:08:44.685Z,13
2022-10-22T00:10:45.690Z,13.08
2022-10-22T00:12:46.989Z,13.26
2022-10-22T00:14:48.281Z,13.17
2022-10-22T00:16:49.932Z,13.33
2022-10-22T00:18:51.026Z,13.48
2022-10-22T00:20:52.351Z,13.4
2022-10-22T00:22:53.875Z,13.56
2022-10-22T00:24:55.281Z,13.6
2022-10-22T00:26:56.569Z,13.87
2022-10-22T00:28:57.516Z,13.81
2022-10-22T00:30:58.585Z,13.78
2022-10-22T00:32:59.895Z,13.72
2022-10-22T00:35:01.625Z,13.65
2022-10-22T00:37:02.771Z,13.68
2022-10-22T00:39:04.388Z,13.22
2022-10-22T00:41:05.731Z,13.26
2022-10-22T00:45:08.653Z,13.72
2022-10-22T00:47:09.807Z,13.9
2022-10-22T00:49:11.406Z,13.92
2022-10-22T00:51:12.583Z,13.99
2022-10-22T00:53:14.027Z,14.05
2022-10-22T00:55:15.713Z,14.23
2022-10-22T00:57:16.798Z,14.22
2022-10-22T00:59:17.823Z,14.29
2022-10-22T01:01:18.981Z,14.23
2022-10-22T01:03:20.321Z,14.14
2022-10-22T01:05:21.980Z,14.15
2022-10-22T01:07:23.808Z,14.08
2022-10-22T01:09:24.760Z,14.08
2022-10-22T01:11:26.381Z,14.04
2022-10-22T01:13:27.743Z,14.1
2022-10-22T01:15:29.003Z,14.11
2022-10-22T01:17:30.410Z,14.08
2022-10-22T01:19:31.621Z,14.05
2022-10-22T01:21:33.260Z,14.03
2022-10-22T01:23:34.523Z,13.98
2022-10-22T01:25:36.045Z,14.04
2022-10-22T01:27:38.116Z,13.98
2022-10-22T01:29:39.415Z,13.89
2022-10-22T01:31:40.992Z,13.9
2022-10-22T01:33:42.135Z,13.99
2022-10-22T01:35:43.598Z,13.98
2022-10-22T01:37:44.740Z,14.03
2022-10-22T01:39:46.250Z,14
2022-10-22T01:41:48.093Z,14.03
2022-10-22T01:43:49.840Z,13.93
2022-10-22T01:45:51.075Z,13.88
2022-10-22T01:47:52.079Z,13.89
2022-10-22T01:49:53.498Z,13.85
2022-10-22T01:51:54.601Z,13.74
2022-10-22T01:53:55.913Z,13.68
2022-10-22T01:55:57.771Z,13.58
2022-10-22T01:57:58.790Z,13.59
2022-10-22T02:00:00.446Z,13.7
2022-10-22T02:02:02.159Z,13.77
2022-10-22T02:04:03.150Z,13.75
2022-10-22T02:06:04.863Z,13.68
2022-10-22T02:08:05.803Z,13.82
2022-10-22T02:10:07.362Z,13.74
2022-10-22T02:12:08.506Z,13.76
2022-10-22T02:14:09.724Z,13.74
2022-10-22T02:16:11.441Z,13.65
2022-10-22T02:18:12.711Z,13.7
2022-10-22T02:20:14.220Z,13.76
2022-10-22T02:22:15.988Z,13.73
2022-10-22T02:24:17.774Z,13.74
2022-10-22T02:26:19.428Z,13.75
2022-10-22T02:28:20.364Z,13.7
2022-10-22T02:30:21.337Z,13.67
2022-10-22T02:32:22.732Z,13.68
2022-10-22T02:34:24.145Z,13.6
2022-10-22T02:36:25.289Z,13.57
2022-10-22T02:38:26.364Z,13.53
2022-10-22T02:40:28.072Z,13.53
2022-10-22T02:42:29.051Z,13.54
2022-10-22T02:44:30.066Z,13.5
2022-10-22T02:46:31.851Z,13.81
2022-10-22T02:48:33.760Z,13.75
2022-10-22T02:50:35.041Z,13.75
2022-10-22T02:52:36.627Z,13.62
2022-10-22T02:54:37.858Z,13.53
2022-10-22T02:56:39.205Z,13.56
2022-10-22T02:58:40.667Z,13.45
2022-10-22T03:00:42.206Z,13.46
2022-10-22T03:02:43.957Z,13.31
2022-10-22T03:04:45.471Z,13.34
2022-10-22T03:06:47.040Z,13.29
2022-10-22T03:08:48.535Z,13.3
2022-10-22T03:10:50.164Z,13.22
2022-10-22T03:12:51.131Z,13.2
2022-10-22T03:14:52.660Z,13.25
2022-10-22T03:16:54.268Z,13.26
2022-10-22T03:18:56.147Z,13.22
2022-10-22T03:20:57.685Z,13.07
2022-10-22T03:22:59.222Z,13.06
2022-10-22T03:25:00.950Z,13.03
2022-10-22T03:27:02.265Z,13.07
2022-10-22T03:29:03.535Z,13.12
2022-10-22T03:31:05.114Z,13.05
2022-10-22T03:33:06.071Z,13.05
2022-10-22T03:35:07.214Z,12.97
2022-10-22T03:37:08.509Z,13.22
2022-10-22T03:39:09.763Z,13.16
2022-10-22T03:41:10.642Z,13.18
2022-10-22T03:43:12.476Z,13.11
2022-10-22T03:45:13.538Z,13.14
2022-10-22T03:47:14.771Z,13.12
2022-10-22T03:49:15.778Z,13.06
2022-10-22T03:51:16.709Z,13.09
2022-10-22T03:53:18.037Z,13.05
2022-10-22T03:55:18.996Z,13.05
2022-10-22T03:57:19.969Z,13
2022-10-22T03:59:21.232Z,13
2022-10-22T04:01:22.774Z,12.93
2022-10-22T04:03:24.135Z,12.88
2022-10-22T04:05:25.586Z,12.84
2022-10-22T04:07:26.713Z,12.79
2022-10-22T04:09:27.835Z,12.76
2022-10-22T04:11:29.566Z,12.79
2022-10-22T04:13:31.135Z,12.77
2022-10-22T04:15:32.623Z,12.68
2022-10-22T04:17:34.388Z,12.52
2022-10-22T04:19:35.826Z,12.36
2022-10-22T04:23:38.617Z,12.16
2022-10-22T04:25:39.838Z,12.23
2022-10-22T04:27:41.883Z,12.19
2022-10-22T04:29:42.945Z,11.95
2022-10-22T04:31:43.974Z,11.91
2022-10-22T04:33:45.419Z,11.88
2022-10-22T04:35:47.092Z,11.92
2022-10-22T04:37:48.038Z,11.95
2022-10-22T04:39:49.498Z,12.12
2022-10-22T04:41:51.326Z,12.22
2022-10-22T04:43:52.459Z,12.24
2022-10-22T04:45:53.775Z,12.33
2022-10-22T04:47:54.815Z,12.24
2022-10-22T04:49:55.945Z,12.08
2022-10-22T04:51:57.227Z,12.19
2022-10-22T04:53:58.803Z,12.28
2022-10-22T04:56:00.064Z,12.18
2022-10-22T04:58:01.614Z,12.21
2022-10-22T05:00:03.268Z,12.19
2022-10-22T05:02:05.079Z,12.16
2022-10-22T05:04:06.584Z,12.12
2022-10-22T05:06:07.756Z,12.08
2022-10-22T05:08:08.713Z,12.13
2022-10-22T05:10:09.759Z,12.15
2022-10-22T05:12:11.643Z,12.17
2022-10-22T05:14:13.323Z,12.15
2022-10-22T05:16:14.592Z,12.15
2022-10-22T05:18:17.838Z,12.14
2022-10-22T05:20:17.585Z,12.12
2022-10-22T05:22:18.802Z,12.04
2022-10-22T05:24:20.367Z,11.9
2022-10-22T05:26:21.510Z,11.76
2022-10-22T05:28:22.679Z,11.68
2022-10-22T05:30:24.144Z,11.61
2022-10-22T05:32:25.052Z,11.59
2022-10-22T05:34:26.364Z,11.47
2022-10-22T05:36:27.924Z,11.4
2022-10-22T05:38:29.274Z,11.41
2022-10-22T05:40:31.300Z,11.37
2022-10-22T05:42:32.416Z,11.42
2022-10-22T05:44:33.854Z,11.48
2022-10-22T05:46:34.961Z,11.52
2022-10-22T05:48:36.031Z,11.49
2022-10-22T05:50:37.297Z,11.53
2022-10-22T05:52:39.252Z,11.43
2022-10-22T05:54:40.901Z,11.43
2022-10-22T05:56:42.008Z,11.34
2022-10-22T05:58:43.879Z,11.22
2022-10-22T06:00:45.199Z,11.11
2022-10-22T06:02:46.492Z,11.01
2022-10-22T06:04:47.481Z,10.95
2022-10-22T06:06:49.319Z,11.11
2022-10-22T06:08:51.258Z,11.14
2022-10-22T06:10:52.972Z,11.17
2022-10-22T06:12:54.278Z,11.18
2022-10-22T06:14:55.843Z,11.24
2022-10-22T06:16:57.214Z,11.21
2022-10-22T06:18:58.602Z,11.2
2022-10-22T06:21:00.169Z,11.16
2022-10-22T06:23:01.624Z,11.27
2022-10-22T06:25:03.107Z,11.29
2022-10-22T06:27:05.043Z,11.3
2022-10-22T06:29:05.974Z,11.35
2022-10-22T06:31:07.427Z,11.41
2022-10-22T06:33:08.345Z,11.43
2022-10-22T06:35:09.868Z,11.54
2022-10-22T06:37:11.677Z,11.49
2022-10-22T06:39:12.869Z,11.58
2022-10-22T06:41:14.603Z,11.61
2022-10-22T06:43:15.707Z,11.73
2022-10-22T06:43:59.572Z,11.77
2022-10-22T06:46:00.805Z,11.82
2022-10-22T06:48:02.610Z,11.82
2022-10-22T06:50:04.419Z,11.89
2022-10-22T06:52:06.038Z,11.93
2022-10-22T06:54:07.123Z,11.86
2022-10-22T06:56:08.461Z,11.82
2022-10-22T06:58:09.944Z,11.83
2022-10-22T07:00:11.685Z,11.83
2022-10-22T07:02:12.815Z,11.84
2022-10-22T07:04:14.173Z,11.86
2022-10-22T07:06:15.456Z,12.01
2022-10-22T07:08:16.521Z,12.11
2022-10-22T07:10:17.503Z,12.28
2022-10-22T07:12:18.656Z,12.17
2022-10-22T07:14:19.796Z,12.07
2022-10-22T07:16:21.358Z,11.92
2022-10-22T07:18:22.855Z,12.07
2022-10-22T07:20:23.817Z,12.16
2022-10-22T07:22:26.243Z,12.13
2022-10-22T07:24:26.567Z,12.11
2022-10-22T07:26:28.089Z,12.13
2022-10-22T07:28:29.267Z,12.18
2022-10-22T07:30:30.807Z,12.3
2022-10-22T07:32:31.955Z,12.46
2022-10-22T07:34:32.881Z,12.55
2022-10-22T07:36:33.829Z,12.68
2022-10-22T07:38:35.237Z,12.79
2022-10-22T07:40:36.631Z,12.84
2022-10-22T07:42:37.812Z,13.03
2022-10-22T07:44:39.387Z,13.31
2022-10-22T07:46:40.541Z,13.71
2022-10-22T07:48:42.346Z,13.96
2022-10-22T07:52:44.874Z,13.77
2022-10-22T07:54:46.222Z,13.22
2022-10-22T07:56:47.715Z,13
2022-10-22T07:58:48.961Z,13.09
2022-10-22T08:00:50.294Z,13.1
2022-10-22T08:02:51.551Z,13.18
2022-10-22T08:04:53.248Z,13.28
2022-10-22T08:06:54.356Z,13.3
2022-10-22T08:08:55.885Z,13.35
2022-10-22T08:10:56.997Z,13.31
2022-10-22T08:12:58.104Z,13.33
2022-10-22T08:14:59.427Z,13.34
2022-10-22T08:17:00.995Z,13.4
2022-10-22T08:19:02.663Z,13.53
2022-10-22T08:23:05.512Z,13.76
2022-10-22T08:25:07.009Z,14.03
2022-10-22T08:27:08.069Z,14.12
2022-10-22T08:29:09.276Z,14.26
2022-10-22T08:31:10.867Z,14.38
2022-10-22T08:33:11.710Z,14.52
2022-10-22T08:35:15.320Z,14.28
2022-10-22T08:37:15.180Z,14.31
2022-10-22T08:39:16.929Z,14.34
2022-10-22T08:41:18.679Z,14.48
2022-10-22T08:43:20.064Z,14.5
2022-10-22T08:45:21.864Z,14.76
2022-10-22T08:47:23.451Z,14.72
2022-10-22T08:49:24.520Z,14.82
2022-10-22T08:51:25.995Z,14.78
2022-10-22T08:53:27.604Z,14.66
2022-10-22T08:55:30.264Z,14.67
2022-10-22T08:59:31.588Z,14.89
2022-10-22T09:01:33.378Z,14.88
2022-10-22T09:03:34.262Z,14.94
2022-10-22T09:05:35.729Z,15.13
2022-10-22T09:07:36.970Z,15.21
2022-10-22T09:09:38.011Z,15.25
2022-10-22T09:11:39.632Z,15.62
2022-10-22T09:13:41.275Z,15.78
2022-10-22T09:15:43.796Z,15.85
2022-10-22T09:17:44.829Z,16.08
2022-10-22T09:19:45.676Z,16.4
2022-10-22T09:21:46.846Z,16.45
2022-10-22T09:23:48.668Z,16.38
2022-10-22T09:25:49.546Z,16.66
2022-10-22T09:27:50.637Z,16.83
2022-10-22T09:29:51.809Z,16.78
2022-10-22T09:31:53.356Z,16.6
2022-10-22T09:33:54.266Z,16.41
2022-10-22T09:35:55.573Z,16.79
2022-10-22T09:37:56.913Z,16.85
2022-10-22T09:39:58.403Z,16.75
2022-10-22T09:41:59.727Z,17.11
2022-10-22T09:44:01.136Z,17.54
2022-10-22T09:46:02.422Z,17.06
2022-10-22T09:48:03.891Z,17.11
2022-10-22T09:50:05.309Z,17.09
2022-10-22T09:52:06.200Z,17.06
2022-10-22T09:54:07.385Z,17.52
2022-10-22T09:56:08.260Z,17.84
2022-10-22T09:58:09.607Z,17.74
2022-10-22T10:00:11.369Z,17.44
2022-10-22T10:02:19.843Z,17.61
2022-10-22T10:04:13.754Z,17.79
2022-10-22T10:06:15.370Z,17.71
2022-10-22T10:08:16.828Z,17.8
2022-10-22T10:10:18.561Z,17.43
2022-10-22T10:12:19.752Z,17.96
2022-10-22T10:14:21.456Z,18.09
2022-10-22T10:16:23.299Z,17.82
2022-10-22T10:18:25.104Z,17.86
2022-10-22T10:20:26.185Z,17.77
2022-10-22T10:22:27.195Z,17.78
2022-10-22T10:24:28.330Z,17.66
2022-10-22T10:26:29.187Z,17.71
2022-10-22T10:28:30.087Z,17.89
2022-10-22T10:30:31.322Z,17.72
2022-10-22T10:32:32.256Z,18.18
2022-10-22T10:34:33.273Z,17.93
2022-10-22T10:36:34.428Z,17.57
2022-10-22T10:38:36.851Z,17.65
2022-10-22T10:40:38.312Z,17.81
2022-10-22T10:42:40.275Z,17.58
2022-10-22T10:44:41.459Z,17.49
2022-10-22T10:46:42.577Z,17.85
2022-10-22T10:48:43.941Z,17.88
2022-10-22T10:50:45.221Z,17.9
2022-10-22T10:52:46.182Z,17.82
2022-10-22T10:54:47.750Z,17.94
2022-10-22T10:56:49.544Z,18.04
2022-10-22T10:58:51.010Z,17.87
2022-10-22T11:00:52.720Z,17.73
2022-10-22T11:02:53.874Z,17.81
2022-10-22T11:04:55.790Z,18.24
2022-10-22T11:07:05.771Z,18.46
2022-10-22T11:08:58.661Z,18.48
2022-10-22T11:10:59.660Z,18.91
2022-10-22T11:13:00.486Z,18.93
2022-10-22T11:15:01.415Z,18.87
2022-10-22T11:17:03.010Z,18.27
2022-10-22T11:19:04.153Z,18.07
2022-10-22T11:21:05.690Z,17.74
2022-10-22T11:23:19.786Z,18.1
2022-10-22T11:25:08.144Z,17.97
2022-10-22T11:27:09.441Z,17.87
2022-10-22T11:29:10.722Z,17.93
2022-10-22T11:31:11.655Z,18.03
2022-10-22T11:33:12.712Z,17.59
2022-10-22T11:35:14.197Z,17.55
2022-10-22T11:37:15.983Z,17.8
2022-10-22T11:39:16.981Z,17.91
2022-10-22T11:41:18.202Z,18.14
2022-10-22T11:43:19.762Z,18.12
2022-10-22T11:45:21.118Z,18.24
2022-10-22T11:47:22.695Z,18.34
2022-10-22T11:49:24.005Z,18.33
2022-10-22T11:51:25.045Z,18.63
2022-10-22T11:53:26.441Z,18.85
2022-10-22T11:55:27.913Z,18.79
2022-10-22T11:57:29.682Z,19.22
2022-10-22T11:59:30.883Z,18.78
2022-10-22T12:01:32.460Z,18.46
2022-10-22T12:03:33.943Z,18.59
2022-10-22T12:05:35.562Z,18.86
2022-10-22T12:07:36.915Z,18.37
2022-10-22T12:09:38.076Z,18.73
2022-10-22T12:11:39.356Z,18.87
2022-10-22T12:13:40.575Z,18.59
2022-10-22T12:15:42.267Z,18.81
2022-10-22T12:17:43.441Z,19.36
2022-10-22T12:19:44.720Z,19.44
2022-10-22T12:21:46.210Z,19.59
2022-10-22T12:23:48.003Z,19.3
2022-10-22T12:25:49.569Z,19.06
2022-10-22T12:27:51.303Z,18.94
2022-10-22T12:29:52.989Z,19.14
2022-10-22T12:31:54.495Z,19.56
2022-10-22T12:33:55.951Z,19.59
2022-10-22T12:35:57.361Z,19.14
2022-10-22T12:37:58.882Z,18.76
2022-10-22T12:39:59.793Z,18.81
2022-10-22T12:42:00.566Z,18.94
2022-10-22T12:44:02.130Z,18.89
2022-10-22T12:46:02.988Z,19.18
2022-10-22T12:48:04.047Z,19.36
2022-10-22T12:50:05.911Z,19.79
2022-10-22T12:52:07.675Z,19.75
2022-10-22T12:54:08.142Z,19.78
2022-10-22T12:56:09.620Z,20.11
2022-10-22T12:58:11.224Z,19.81
2022-10-22T13:00:12.182Z,19.67
2022-10-22T13:02:13.087Z,19.68
2022-10-22T13:04:14.267Z,19.44
2022-10-22T13:06:15.661Z,19.56
2022-10-22T13:08:16.823Z,19.44
2022-10-22T13:10:17.913Z,19.11
2022-10-22T13:12:19.101Z,18.96
2022-10-22T13:14:20.436Z,18.95
2022-10-22T13:16:22.233Z,18.71
2022-10-22T13:18:23.180Z,18.74
2022-10-22T13:20:24.792Z,18.51
2022-10-22T13:22:26.149Z,18.44
2022-10-22T13:24:27.296Z,18.34
2022-10-22T13:26:28.764Z,18.36
2022-10-22T13:28:29.687Z,18.31
2022-10-22T13:31:15.947Z,18.3
2022-10-22T13:33:17.773Z,18.4
2022-10-22T13:35:19.107Z,18.47
2022-10-22T13:37:20.938Z,18.51
2022-10-22T13:39:22.356Z,18.56
2022-10-22T13:41:23.361Z,18.66
2022-10-22T13:43:24.588Z,18.73
2022-10-22T13:45:26.087Z,18.62
2022-10-22T13:47:27.457Z,18.71
2022-10-22T13:49:29.132Z,18.51
2022-10-22T13:51:30.886Z,18.35
2022-10-22T13:53:32.131Z,18.4
2022-10-22T13:55:33.027Z,18.39
2022-10-22T13:57:34.402Z,18.4
2022-10-22T13:59:35.221Z,18.39
2022-10-22T14:01:36.201Z,18.34
2022-10-22T14:03:37.417Z,18.35
2022-10-22T14:05:39.042Z,18.38
2022-10-22T14:07:40.801Z,18.35
2022-10-22T14:09:42.056Z,18.43
2022-10-22T14:11:43.410Z,18.41
2022-10-22T14:13:44.482Z,18.41
2022-10-22T14:15:46.076Z,18.54
2022-10-22T14:17:47.258Z,18.75
2022-10-22T14:19:48.185Z,18.83
2022-10-22T14:21:49.412Z,19.09
2022-10-22T14:23:50.370Z,19.26
2022-10-22T14:25:51.840Z,19.25
2022-10-22T14:27:52.861Z,19.38
2022-10-22T14:29:57.264Z,19.61
2022-10-22T14:31:55.152Z,19.32
2022-10-22T14:33:56.538Z,19.49
2022-10-22T14:35:57.909Z,19.78
2022-10-22T14:37:58.920Z,19.84
2022-10-22T14:40:00.568Z,20.31
2022-10-22T14:42:03.112Z,20.74
2022-10-22T14:46:04.938Z,20.74
2022-10-22T14:48:06.219Z,20.99
2022-10-22T14:50:07.784Z,21.37
2022-10-22T14:52:10.508Z,21.21
2022-10-22T14:54:09.798Z,20.56
2022-10-22T14:56:11.404Z,19.81
2022-10-22T14:58:12.305Z,19.67
2022-10-22T15:00:13.610Z,19.61
2022-10-22T15:02:15.227Z,19.67
2022-10-22T15:04:16.253Z,19.46
2022-10-22T15:06:16.999Z,19.49
2022-10-22T15:08:18.545Z,19.55
2022-10-22T15:10:19.374Z,19.47
2022-10-22T15:12:20.826Z,19.64
2022-10-22T15:14:22.629Z,19.84
2022-10-22T15:16:23.565Z,20.12
2022-10-22T15:18:24.569Z,20.08
2022-10-22T15:20:25.995Z,20.03
2022-10-22T15:22:27.166Z,19.77
2022-10-22T15:24:28.708Z,19.6
2022-10-22T15:26:30.157Z,19.37
2022-10-22T15:28:31.448Z,18.98
2022-10-22T15:30:32.788Z,18.65
2022-10-22T15:32:34.196Z,18.39
2022-10-22T15:34:35.512Z,18.06
2022-10-22T15:36:37.048Z,17.81
2022-10-22T15:38:38.412Z,17.69
2022-10-22T15:40:39.330Z,17.44
2022-10-22T15:42:41.417Z,17.3
2022-10-22T15:44:42.075Z,17.09
2022-10-22T15:46:43.921Z,17
2022-10-22T15:48:45.218Z,16.86
2022-10-22T15:50:46.983Z,16.77
2022-10-22T15:52:47.954Z,16.77
2022-10-22T15:54:49.200Z,16.8
2022-10-22T15:56:50.199Z,16.75
2022-10-22T15:58:51.397Z,16.65
2022-10-22T16:00:53.035Z,16.59
2022-10-22T16:02:54.462Z,16.5
2022-10-22T16:04:55.602Z,16.4
2022-10-22T16:06:56.906Z,16.35
2022-10-22T16:08:58.706Z,16.43
2022-10-22T16:10:59.773Z,16.55
2022-10-22T16:13:01.267Z,16.36
2022-10-22T16:15:02.344Z,16.11
2022-10-22T16:17:03.789Z,15.83
2022-10-22T16:19:04.665Z,15.74
2022-10-22T16:21:06.114Z,15.65
2022-10-22T16:23:07.225Z,15.61
2022-10-22T16:27:09.484Z,15.54
2022-10-22T16:29:10.780Z,15.41
2022-10-22T16:31:11.706Z,15.34
2022-10-22T16:33:13.043Z,15.23
2022-10-22T16:35:14.318Z,15.05
2022-10-22T16:37:16.131Z,14.94
2022-10-22T16:39:17.091Z,14.97
2022-10-22T16:41:18.537Z,14.91
2022-10-22T16:43:19.815Z,14.9
2022-10-22T16:45:21.384Z,14.81
2022-10-22T16:47:23.047Z,14.67
2022-10-22T16:49:24.806Z,14.48
2022-10-22T16:51:25.665Z,14.29
2022-10-22T16:53:26.850Z,14.09
2022-10-22T16:55:27.853Z,13.9
2022-10-22T16:57:29.144Z,13.81
2022-10-22T16:59:30.543Z,13.84
2022-10-22T17:01:31.529Z,13.93
2022-10-22T17:03:32.776Z,13.88
2022-10-22T17:05:34.480Z,13.88
2022-10-22T17:07:36.148Z,13.81
2022-10-22T17:09:37.631Z,13.58
2022-10-22T17:11:40.123Z,13.39
2022-10-22T17:13:40.196Z,13.23
2022-10-22T17:15:41.799Z,13.06
2022-10-22T17:17:43.081Z,13.01
2022-10-22T17:19:44.950Z,12.91
2022-10-22T17:21:46.208Z,12.87
2022-10-22T17:23:47.191Z,12.95
2022-10-22T17:25:48.541Z,12.93
2022-10-22T17:27:49.987Z,13.02
2022-10-22T17:29:51.627Z,12.95
2022-10-22T17:31:53.484Z,12.9
2022-10-22T17:33:54.979Z,12.75
2022-10-22T17:35:56.414Z,12.67
2022-10-22T17:37:57.792Z,12.52
2022-10-22T17:39:58.852Z,12.48
2022-10-22T17:42:00.465Z,12.54
2022-10-22T17:44:02.026Z,12.59
2022-10-22T17:46:03.044Z,12.51
2022-10-22T17:48:04.401Z,12.5
2022-10-22T17:50:06.311Z,12.57
2022-10-22T17:52:07.905Z,12.49
2022-10-22T17:54:09.913Z,12.59
2022-10-22T17:56:10.775Z,12.53
2022-10-22T17:58:11.792Z,12.44
2022-10-22T18:00:13.177Z,12.46
2022-10-22T18:02:14.801Z,12.45
2022-10-22T18:04:16.017Z,12.29
2022-10-22T18:08:18.762Z,12
2022-10-22T18:10:19.939Z,11.85
2022-10-22T18:12:21.811Z,11.84
2022-10-22T18:14:23.736Z,11.92
2022-10-22T18:16:25.341Z,11.94
2022-10-22T18:18:26.927Z,11.89
2022-10-22T18:20:28.389Z,11.77
2022-10-22T18:22:29.611Z,11.77
2022-10-22T18:24:30.846Z,11.7
2022-10-22T18:26:31.912Z,11.58
2022-10-22T18:30:35.045Z,11.43
2022-10-22T18:32:36.154Z,11.47
2022-10-22T18:34:37.250Z,11.41
2022-10-22T18:36:38.527Z,11.5
2022-10-22T18:38:39.881Z,11.4
2022-10-22T18:40:41.417Z,11.3
2022-10-22T18:42:42.708Z,11.27
2022-10-22T18:44:43.774Z,11.33
2022-10-22T18:46:45.454Z,11.41
2022-10-22T18:48:46.991Z,11.38
2022-10-22T18:50:48.135Z,11.39
2022-10-22T18:52:49.166Z,11.37
2022-10-22T18:54:50.289Z,11.42
2022-10-22T18:56:51.232Z,11.32
2022-10-22T18:58:52.984Z,11.18
2022-10-22T19:00:54.949Z,11.17
2022-10-22T19:02:56.074Z,11.07
2022-10-22T19:04:57.193Z,11
2022-10-22T19:06:58.174Z,11
2022-10-22T19:08:59.751Z,10.9
2022-10-22T19:11:00.623Z,10.84
2022-10-22T19:13:02.158Z,10.8
2022-10-22T19:15:03.326Z,10.79
2022-10-22T19:17:04.488Z,10.76
2022-10-22T19:19:06.361Z,10.77
2022-10-22T19:21:07.898Z,10.8
2022-10-22T19:23:09.814Z,10.79
2022-10-22T19:25:11.950Z,10.73
2022-10-22T19:27:12.379Z,10.75
2022-10-22T19:29:13.495Z,10.75
2022-10-22T19:31:15.028Z,10.72
2022-10-22T19:33:16.041Z,10.66
2022-10-22T19:35:17.863Z,10.67
2022-10-22T19:37:19.779Z,10.74
2022-10-22T19:39:21.208Z,10.7
2022-10-22T19:41:23.126Z,10.56
2022-10-22T19:43:24.908Z,10.43
2022-10-22T19:45:26.253Z,10.52
2022-10-22T19:47:27.572Z,10.55
2022-10-22T19:49:28.807Z,10.53
2022-10-22T19:51:30.237Z,10.54
2022-10-22T19:53:31.584Z,10.56
2022-10-22T19:55:32.575Z,10.5
2022-10-22T19:57:34.232Z,10.52
2022-10-22T19:59:35.484Z,10.48
2022-10-22T20:01:36.510Z,10.53
2022-10-22T20:03:37.574Z,10.55
2022-10-22T20:05:39.380Z,10.53
2022-10-22T20:07:41.217Z,10.4
2022-10-22T20:09:42.298Z,10.39
2022-10-22T20:11:44.224Z,10.3
2022-10-22T20:13:47.971Z,10.43
2022-10-22T20:16:31.022Z,10.34
2022-10-22T20:18:32.703Z,10.38
2022-10-22T20:20:33.878Z,10.36
2022-10-22T20:22:35.480Z,10.29
2022-10-22T20:24:37.204Z,10.2
2022-10-22T20:26:38.355Z,10.13
2022-10-22T20:28:39.322Z,10.09
2022-10-22T20:30:40.446Z,10.02
2022-10-22T20:32:42.513Z,10.01
2022-10-22T20:34:43.232Z,10.02
2022-10-22T20:36:44.689Z,9.97
2022-10-22T20:38:45.819Z,9.95
2022-10-22T20:40:47.096Z,9.92
2022-10-22T20:42:48.124Z,9.85
2022-10-22T20:44:49.249Z,9.8
2022-10-22T20:46:50.216Z,9.84
2022-10-22T20:48:52.005Z,9.92
2022-10-22T20:50:53.626Z,10.02
2022-10-22T20:52:55.228Z,10
2022-10-22T20:54:56.509Z,9.96
2022-10-22T20:56:57.785Z,9.94
2022-10-22T20:58:59.694Z,9.9
2022-10-22T21:01:01.160Z,9.89
2022-10-22T21:03:02.884Z,9.95
2022-10-22T21:05:03.917Z,9.85
2022-10-22T21:07:05.340Z,9.77
2022-10-22T21:09:07.132Z,9.74
2022-10-22T21:11:08.555Z,9.78
2022-10-22T21:13:09.917Z,9.75
2022-10-22T21:15:12.449Z,9.66
2022-10-22T21:17:13.181Z,9.62
2022-10-22T21:19:14.707Z,9.57
2022-10-22T21:21:15.712Z,9.53
2022-10-22T21:23:16.810Z,9.52
2022-10-22T21:25:18.392Z,9.62
2022-10-22T21:27:19.916Z,9.62
2022-10-22T21:29:20.980Z,9.65
2022-10-22T21:31:22.309Z,9.64
2022-10-22T21:33:23.733Z,9.73
2022-10-22T21:35:25.638Z,9.8
2022-10-22T21:37:26.660Z,9.74
2022-10-22T21:39:28.383Z,9.68
2022-10-22T21:41:30.291Z,9.63
2022-10-22T21:43:31.275Z,9.72
2022-10-22T21:45:33.082Z,9.69
2022-10-22T21:47:35.010Z,9.63
2022-10-22T21:49:36.720Z,9.57
2022-10-22T21:51:38.147Z,9.49
2022-10-22T21:53:40.054Z,9.51
2022-10-22T21:55:41.408Z,9.43
2022-10-22T21:57:43.486Z,9.42
2022-10-22T21:59:44.856Z,9.37
2022-10-22T22:01:46.117Z,9.4
2022-10-22T22:03:47.559Z,9.38
2022-10-22T22:05:51.479Z,9.46
2022-10-22T22:07:51.141Z,9.51
2022-10-22T22:09:52.607Z,9.46
2022-10-22T22:11:54.228Z,9.37
2022-10-22T22:13:56.109Z,9.38
2022-10-22T22:15:57.300Z,9.46
2022-10-22T22:17:58.474Z,9.39
2022-10-22T22:20:00.054Z,9.34
2022-10-22T22:22:01.418Z,9.42
2022-10-22T22:24:03.250Z,9.33
2022-10-22T22:26:05.139Z,9.3
2022-10-22T22:28:06.842Z,9.3
2022-10-22T22:30:08.724Z,9.27
2022-10-22T22:32:10.185Z,9.2
2022-10-22T22:34:11.447Z,9.25
2022-10-22T22:36:12.787Z,9.17
2022-10-22T22:38:14.107Z,9.03
2022-10-22T22:40:15.715Z,8.93
2022-10-22T22:42:17.121Z,8.96
2022-10-22T22:44:18.831Z,9.03
2022-10-22T22:46:20.157Z,9.01
2022-10-22T22:48:21.141Z,8.97
2022-10-22T22:50:22.689Z,8.89
2022-10-22T22:52:24.558Z,8.83
2022-10-22T22:54:25.970Z,8.79
2022-10-22T22:56:27.853Z,8.81
2022-10-22T22:58:28.796Z,8.81
2022-10-22T23:00:30.604Z,8.83
2022-10-22T23:02:32.108Z,8.83
2022-10-22T23:04:33.164Z,8.83
2022-10-22T23:06:34.799Z,9.01
2022-10-22T23:08:36.086Z,8.94
2022-10-22T23:10:37.258Z,9.02
2022-10-22T23:12:38.538Z,9.14
2022-10-22T23:14:40.204Z,9.02
2022-10-22T23:16:42.117Z,8.93
2022-10-22T23:18:44.061Z,8.81
2022-10-22T23:22:47.175Z,8.9
2022-10-22T23:24:48.226Z,8.84
2022-10-22T23:26:49.323Z,9.05
2022-10-22T23:28:51.165Z,9.11
2022-10-22T23:30:52.852Z,9.11
2022-10-22T23:32:54.640Z,9.11
2022-10-22T23:34:56.266Z,9.13
2022-10-22T23:36:58.206Z,9.09
2022-10-22T23:38:59.671Z,9.12
2022-10-22T23:41:00.699Z,9.11
2022-10-22T23:43:01.676Z,9.15
2022-10-22T23:45:02.899Z,9.31
2022-10-22T23:47:04.200Z,9.26
2022-10-22T23:49:05.566Z,9.2
2022-10-22T23:51:07.004Z,9.1
2022-10-22T23:53:08.603Z,9.06
2022-10-22T23:55:09.697Z,8.89
2022-10-22T23:57:11.595Z,8.8
